Cody Paul — WDC8106 — position and weather

sailwx.info

Track history (hours):
 
Tides and Currents Weather Stations Pressure Air Temp Water Temp Dewpoint Dewpoint Depression Visibility Wind Speed Wind Dir Waves Ship Positions

Cody Paul

Owner: Triple S Marine, LLC, Morgan City, LA. More information available from US FCC via Universal Licensing System and Coast Guard Vessel Documentation Center.

Last reported at 2018-May-20 05:39 UTC. Time now 2018-May-20 21:53 UTC.
Position N 29°33' W 090°32'.

Length 16 m; draft 3 m.

Type: Tug. MMSI: 367081770.

Date/timePositionNaut miles runAvg speedWind from/ knotsBaromVisibWave heightAir tempDewpointWater temp
2018-May-20 05:39N 29°33' W 090°32'0 0.0
2018-May-20 05:29N 29°33' W 090°32'0 0.0
2018-May-20 05:00N 29°33' W 090°32'1 0.2
2018-May-20 01:21N 29°34' W 090°32'2 5.8
2018-May-20 01:00N 29°34' W 090°34'3 6.2
2018-May-20 00:30N 29°35' W 090°38'2 4.2
2018-May-19 23:59N 29°36' W 090°40'1 2.2
2018-May-19 23:30N 29°36' W 090°41'1 2.9
2018-May-19 23:00N 29°36' W 090°43'2 4.2
2018-May-19 22:30N 29°34' W 090°43'0 0.9
2018-May-19 22:00N 29°34' W 090°43'1 1.9
2018-May-19 21:30N 29°33' W 090°42'0 0.1
2018-May-19 21:00N 29°33' W 090°42'1 1.8
2018-May-19 20:30N 29°34' W 090°43'1 1.9
2018-May-19 20:00N 29°33' W 090°42'0 0.3
2018-May-19 19:30N 29°33' W 090°42'1 1.6
2018-May-19 19:00N 29°34' W 090°43'0 0.0
2018-May-19 18:30N 29°34' W 090°43'0 0.0
2018-May-19 18:00N 29°34' W 090°43'0 0.0
2018-May-19 17:28N 29°34' W 090°43'0 0.0
2018-May-19 17:00N 29°34' W 090°43'0 0.1
2018-May-19 16:30N 29°34' W 090°43'0 0.0
2018-May-19 16:00N 29°34' W 090°43'0 0.1
2018-May-19 15:30N 29°34' W 090°43'0 0.0
2018-May-19 15:00N 29°34' W 090°43'0 0.0
2018-May-19 14:30N 29°34' W 090°43'0 0.0
2018-May-19 14:00N 29°34' W 090°43'0 0.0
2018-May-19 13:30N 29°34' W 090°43'0 0.0
2018-May-19 13:00N 29°34' W 090°43'0 0.0
2018-May-19 12:30N 29°34' W 090°43'0 0.0
2018-May-19 12:00N 29°34' W 090°43'0 0.0
2018-May-19 11:30N 29°34' W 090°43'0 0.0
2018-May-19 10:59N 29°34' W 090°43'1 1.2
2018-May-19 10:30N 29°34' W 090°42'1 1.7
2018-May-19 09:59N 29°34' W 090°43'2 3.9
2018-May-19 09:30N 29°36' W 090°43'2 3.1
2018-May-19 09:00N 29°36' W 090°41'1 1.2
2018-May-19 08:30N 29°36' W 090°40'0 0.0
2018-May-19 08:00N 29°36' W 090°40'0 0.0
2018-May-19 07:30N 29°36' W 090°40'0 0.0
2018-May-19 07:00N 29°36' W 090°40'0 0.0
2018-May-19 06:30N 29°36' W 090°40'0 0.4
2018-May-19 06:00N 29°36' W 090°40'0 0.0
2018-May-19 05:30N 29°36' W 090°40'0 0.2
2018-May-19 05:00N 29°36' W 090°40'2 4.6
2018-May-19 04:30N 29°36' W 090°43'2 3.7
2018-May-19 04:00N 29°34' W 090°43'0 0.7
2018-May-19 03:29N 29°34' W 090°43'0 0.0
2018-May-19 03:00N 29°34' W 090°43'0 0.0
2018-May-19 02:30N 29°34' W 090°43'1 1.2
2018-May-19 02:00N 29°33' W 090°42'1 2.1
2018-May-19 01:30N 29°34' W 090°43'1 2.8
2018-May-19 01:00N 29°36' W 090°43'1 2.7
2018-May-19 00:30N 29°37' W 090°42'2 3.6
2018-May-19 00:00N 29°36' W 090°40'0 0.0
2018-May-18 23:30N 29°36' W 090°40'2 4.0
2018-May-18 23:00N 29°37' W 090°42'3 6.6
2018-May-18 22:30N 29°34' W 090°44'3 6.5
2018-May-18 22:00N 29°32' W 090°47'5 7.3
2018-May-18 21:21N 29°32' W 090°53'3 7.4
2018-May-18 21:00N 29°34' W 090°55'  
2018-May-13 17:03N 29°32' W 090°50'0 6.8
2018-May-13 17:00N 29°32' W 090°50'3 6.7
2018-May-13 16:30N 29°32' W 090°46'3 5.7
2018-May-13 16:00N 29°34' W 090°44'3 5.5
2018-May-13 15:30N 29°36' W 090°43'3 6.0
2018-May-13 15:00N 29°36' W 090°39'3 6.3
2018-May-13 14:29N 29°35' W 090°36'4 6.6
2018-May-13 13:57N 29°34' W 090°32'0 0.8
2018-May-13 13:30N 29°33' W 090°32'0 0.0
2018-May-13 09:16N 29°33' W 090°32'3 0.1
2018-May-11 22:48N 29°33' W 090°28'2 7.5
2018-May-11 22:30N 29°34' W 090°31'1 0.0
2018-May-11 00:02N 29°33' W 090°32'0 0.0
2018-May-10 23:59N 29°33' W 090°32'0 0.0
2018-May-10 15:17N 29°33' W 090°32'0 0.0
2018-May-10 14:53N 29°33' W 090°32'0 0.2
2018-May-10 14:23N 29°33' W 090°32'  
Track history (hours):
 
Tides and Currents Weather Stations Pressure Air Temp Water Temp Dewpoint Dewpoint Depression Visibility Wind Speed Wind Dir Waves Ship Positions

Cody Paul

Owner: Triple S Marine, LLC, Morgan City, LA. More information available from US FCC via Universal Licensing System and Coast Guard Vessel Documentation Center.

Last reported at 2018-May-20 05:39 UTC. Time now 2018-May-20 21:53 UTC.
Position N 29°33' W 090°32'.

Length 16 m; draft 3 m.

Type: Tug. MMSI: 367081770.

Date/timePositionNaut miles runAvg speedWind from/ knotsBaromVisibWave heightAir tempDewpointWater temp
2018-May-20 05:39N 29°33' W 090°32'0 0.0
2018-May-20 05:29N 29°33' W 090°32'0 0.0
2018-May-20 05:00N 29°33' W 090°32'1 0.2
2018-May-20 01:21N 29°34' W 090°32'2 5.8
2018-May-20 01:00N 29°34' W 090°34'3 6.2
2018-May-20 00:30N 29°35' W 090°38'2 4.2
2018-May-19 23:59N 29°36' W 090°40'1 2.2
2018-May-19 23:30N 29°36' W 090°41'1 2.9
2018-May-19 23:00N 29°36' W 090°43'2 4.2
2018-May-19 22:30N 29°34' W 090°43'0 0.9
2018-May-19 22:00N 29°34' W 090°43'1 1.9
2018-May-19 21:30N 29°33' W 090°42'0 0.1
2018-May-19 21:00N 29°33' W 090°42'1 1.8
2018-May-19 20:30N 29°34' W 090°43'1 1.9
2018-May-19 20:00N 29°33' W 090°42'0 0.3
2018-May-19 19:30N 29°33' W 090°42'1 1.6
2018-May-19 19:00N 29°34' W 090°43'0 0.0
2018-May-19 18:30N 29°34' W 090°43'0 0.0
2018-May-19 18:00N 29°34' W 090°43'0 0.0
2018-May-19 17:28N 29°34' W 090°43'0 0.0
2018-May-19 17:00N 29°34' W 090°43'0 0.1
2018-May-19 16:30N 29°34' W 090°43'0 0.0
2018-May-19 16:00N 29°34' W 090°43'0 0.1
2018-May-19 15:30N 29°34' W 090°43'0 0.0
2018-May-19 15:00N 29°34' W 090°43'0 0.0
2018-May-19 14:30N 29°34' W 090°43'0 0.0
2018-May-19 14:00N 29°34' W 090°43'0 0.0
2018-May-19 13:30N 29°34' W 090°43'0 0.0
2018-May-19 13:00N 29°34' W 090°43'0 0.0
2018-May-19 12:30N 29°34' W 090°43'0 0.0
2018-May-19 12:00N 29°34' W 090°43'0 0.0
2018-May-19 11:30N 29°34' W 090°43'0 0.0
2018-May-19 10:59N 29°34' W 090°43'1 1.2
2018-May-19 10:30N 29°34' W 090°42'1 1.7
2018-May-19 09:59N 29°34' W 090°43'2 3.9
2018-May-19 09:30N 29°36' W 090°43'2 3.1
2018-May-19 09:00N 29°36' W 090°41'1 1.2
2018-May-19 08:30N 29°36' W 090°40'0 0.0
2018-May-19 08:00N 29°36' W 090°40'0 0.0
2018-May-19 07:30N 29°36' W 090°40'0 0.0
2018-May-19 07:00N 29°36' W 090°40'0 0.0
2018-May-19 06:30N 29°36' W 090°40'0 0.4
2018-May-19 06:00N 29°36' W 090°40'0 0.0
2018-May-19 05:30N 29°36' W 090°40'0 0.2
2018-May-19 05:00N 29°36' W 090°40'2 4.6
2018-May-19 04:30N 29°36' W 090°43'2 3.7
2018-May-19 04:00N 29°34' W 090°43'0 0.7
2018-May-19 03:29N 29°34' W 090°43'0 0.0
2018-May-19 03:00N 29°34' W 090°43'0 0.0
2018-May-19 02:30N 29°34' W 090°43'1 1.2
2018-May-19 02:00N 29°33' W 090°42'1 2.1
2018-May-19 01:30N 29°34' W 090°43'1 2.8
2018-May-19 01:00N 29°36' W 090°43'1 2.7
2018-May-19 00:30N 29°37' W 090°42'2 3.6
2018-May-19 00:00N 29°36' W 090°40'0 0.0
2018-May-18 23:30N 29°36' W 090°40'2 4.0
2018-May-18 23:00N 29°37' W 090°42'3 6.6
2018-May-18 22:30N 29°34' W 090°44'3 6.5
2018-May-18 22:00N 29°32' W 090°47'5 7.3
2018-May-18 21:21N 29°32' W 090°53'3 7.4
2018-May-18 21:00N 29°34' W 090°55'  
2018-May-13 17:03N 29°32' W 090°50'0 6.8
2018-May-13 17:00N 29°32' W 090°50'3 6.7
2018-May-13 16:30N 29°32' W 090°46'3 5.7
2018-May-13 16:00N 29°34' W 090°44'3 5.5
2018-May-13 15:30N 29°36' W 090°43'3 6.0
2018-May-13 15:00N 29°36' W 090°39'3 6.3
2018-May-13 14:29N 29°35' W 090°36'4 6.6
2018-May-13 13:57N 29°34' W 090°32'0 0.8
2018-May-13 13:30N 29°33' W 090°32'0 0.0
2018-May-13 09:16N 29°33' W 090°32'3 0.1
2018-May-11 22:48N 29°33' W 090°28'2 7.5
2018-May-11 22:30N 29°34' W 090°31'1 0.0
2018-May-11 00:02N 29°33' W 090°32'0 0.0
2018-May-10 23:59N 29°33' W 090°32'0 0.0
2018-May-10 15:17N 29°33' W 090°32'0 0.0
2018-May-10 14:53N 29°33' W 090°32'0 0.2
2018-May-10 14:23N 29°33' W 090°32'  

Dump ship's entire track history